Time;durP1;ratioP1;P1;durP2;ratioP2;P2;SDS_P1;SDS_P2;PMS_P1;PMS_P2;Temp;Humidity;BMP_temperature;BMP_pressure;BME280_temperature;BME280_humidity;BME280_pressure;Samples;Min_cycle;Max_cycle;Signal;HPM_P1;HPM_P2
2022/09/08 00:00:42;;;;;;;6.93;4.15;;;20.20;73.00;;;;;;5073144;28;20029;-74
2022/09/08 00:03:11;;;;;;;9.55;3.47;;;20.10;73.90;;;;;;5073034;28;20072;-74
2022/09/08 00:05:44;;;;;;;7.35;3.80;;;19.90;74.80;;;;;;5073018;28;20033;-74
2022/09/08 00:08:10;;;;;;;8.07;3.50;;;19.80;75.10;;;;;;5073258;28;20028;-74
2022/09/08 00:10:37;;;;;;;5.68;3.38;;;19.80;75.60;;;;;;5073084;28;20076;-73
2022/09/08 00:13:03;;;;;;;7.47;3.60;;;19.80;75.20;;;;;;5073194;28;20041;-73
2022/09/08 00:15:29;;;;;;;7.82;3.72;;;19.80;75.70;;;;;;5073037;28;20033;-74
2022/09/08 00:17:55;;;;;;;6.53;3.08;;;19.90;76.20;;;;;;5072993;28;20044;-73
2022/09/08 00:20:20;;;;;;;5.20;3.03;;;20.00;77.00;;;;;;5072989;28;20514;-73
2022/09/08 00:22:46;;;;;;;6.70;3.22;;;20.20;75.90;;;;;;5072944;28;20033;-73
2022/09/08 00:25:12;;;;;;;13.35;3.45;;;20.30;75.70;;;;;;5071892;28;20044;-73
2022/09/08 00:27:38;;;;;;;8.23;3.17;;;20.40;75.50;;;;;;5072914;28;20036;-73
2022/09/08 00:30:04;;;;;;;7.40;3.10;;;20.50;75.20;;;;;;5072850;28;20061;-73
2022/09/08 00:32:30;;;;;;;6.68;3.88;;;20.50;75.00;;;;;;5072862;28;20487;-74
2022/09/08 00:34:58;;;;;;;5.65;3.33;;;20.50;74.70;;;;;;5072853;28;20040;-74
2022/09/08 00:37:26;;;;;;;6.80;2.90;;;20.40;74.60;;;;;;5072932;28;20033;-74
2022/09/08 00:39:51;;;;;;;7.65;3.28;;;20.30;74.70;;;;;;5072816;28;20029;-74
2022/09/08 00:42:17;;;;;;;6.97;3.50;;;20.20;74.80;;;;;;5072728;28;20039;-73
2022/09/08 00:44:51;;;;;;;6.95;3.53;;;20.20;75.30;;;;;;5072646;28;20087;-74
2022/09/08 00:47:23;;;;;;;5.57;2.88;;;20.20;76.70;;;;;;5071710;28;20025;-73
2022/09/08 00:50:14;;;;;;;5.82;3.13;;;20.20;75.90;;;;;;5073002;28;20023;-73
2022/09/08 00:52:47;;;;;;;4.20;2.67;;;20.30;75.90;;;;;;5072832;28;20024;-73
2022/09/08 00:55:14;;;;;;;6.15;2.85;;;20.40;75.80;;;;;;5072691;28;20021;-73
2022/09/08 00:57:40;;;;;;;7.43;3.33;;;20.40;75.60;;;;;;5072631;28;20071;-74
2022/09/08 01:00:09;;;;;;;5.72;3.00;;;20.40;75.40;;;;;;5072617;28;20033;-73
2022/09/08 01:02:35;;;;;;;6.90;2.85;;;20.40;75.50;;;;;;5072355;28;20013;-73
2022/09/08 01:05:13;;;;;;;5.22;3.15;;;20.40;75.10;;;;;;5072548;28;20170;-73
2022/09/08 01:13:38;;;;;;;6.32;3.17;;;20.00;75.70;;;;;;5076240;28;20101;-73
2022/09/08 01:16:06;;;;;;;7.03;3.63;;;20.00;75.90;;;;;;5076050;28;20033;-73
2022/09/08 01:18:36;;;;;;;6.55;3.60;;;19.90;76.10;;;;;;5076016;28;20021;-74
2022/09/08 01:21:21;;;;;;;6.32;3.17;;;19.80;76.20;;;;;;5076006;28;20028;-74
2022/09/08 01:24:05;;;;;;;7.15;3.33;;;19.90;76.20;;;;;;5075939;28;20055;-74
2022/09/08 01:27:05;;;;;;;6.97;3.80;;;19.90;76.50;;;;;;5076023;28;20025;-73
2022/09/08 01:29:31;;;;;;;4.63;3.10;;;20.00;76.20;;;;;;5075850;28;20075;-73
2022/09/08 01:31:58;;;;;;;7.82;3.20;;;20.00;76.00;;;;;;5075717;28;20111;-73
2022/09/08 01:34:23;;;;;;;5.70;2.80;;;20.00;76.10;;;;;;5075712;28;20097;-73
2022/09/08 01:36:49;;;;;;;6.20;2.95;;;19.90;76.70;;;;;;5074686;28;20037;-74
2022/09/08 01:39:14;;;;;;;9.10;2.80;;;19.80;76.40;;;;;;5075608;28;20029;-74
2022/09/08 01:41:40;;;;;;;8.25;3.05;;;19.80;76.40;;;;;;5075535;28;20025;-74
2022/09/08 01:44:06;;;;;;;8.23;3.13;;;19.90;76.20;;;;;;5074516;28;20029;-73
2022/09/08 01:46:31;;;;;;;6.20;2.90;;;20.00;76.00;;;;;;5075614;28;20021;-74
2022/09/08 01:48:57;;;;;;;5.75;2.70;;;20.00;75.70;;;;;;5075421;28;20036;-74
2022/09/08 01:51:23;;;;;;;5.78;2.85;;;20.00;75.60;;;;;;5074393;28;20050;-74
2022/09/08 01:53:49;;;;;;;8.15;2.90;;;20.10;75.20;;;;;;5075377;28;20085;-74
2022/09/08 01:56:14;;;;;;;6.18;2.53;;;20.10;75.00;;;;;;5075279;28;20067;-73
2022/09/08 01:58:40;;;;;;;5.20;2.60;;;20.00;75.00;;;;;;5074319;28;20053;-74
2022/09/08 02:01:05;;;;;;;6.95;2.70;;;20.00;75.10;;;;;;5075177;28;20029;-74
2022/09/08 02:03:31;;;;;;;4.82;2.13;;;20.00;75.10;;;;;;5075002;28;20041;-74
2022/09/08 02:06:01;;;;;;;4.15;1.90;;;20.00;75.00;;;;;;5075071;28;20056;-74
2022/09/08 02:08:27;;;;;;;4.85;2.10;;;20.00;75.00;;;;;;5075083;28;20021;-74
2022/09/08 02:10:59;;;;;;;5.03;2.38;;;19.90;75.10;;;;;;5074029;28;20021;-74
2022/09/08 02:13:25;;;;;;;3.70;2.15;;;19.80;75.80;;;;;;5075019;28;20017;-74
2022/09/08 02:15:56;;;;;;;7.90;2.50;;;19.70;74.90;;;;;;5074949;28;20029;-74
2022/09/08 02:18:22;;;;;;;5.50;2.22;;;19.70;75.20;;;;;;5074879;28;20036;-74
2022/09/08 02:20:47;;;;;;;5.53;2.45;;;19.70;75.50;;;;;;5074819;28;20029;-74
2022/09/08 02:23:13;;;;;;;4.47;1.90;;;19.70;75.60;;;;;;5074801;28;20025;-73
2022/09/08 02:25:38;;;;;;;5.88;1.88;;;19.80;75.20;;;;;;5073736;28;20503;-74
2022/09/08 02:28:04;;;;;;;3.88;1.88;;;19.80;75.10;;;;;;5074608;28;20088;-74
2022/09/08 02:30:29;;;;;;;3.55;1.80;;;19.70;74.80;;;;;;5057074;28;20024;-73
2022/09/08 02:32:55;;;;;;;6.85;1.90;;;19.70;75.10;;;;;;5074580;28;20036;-74
2022/09/08 02:35:21;;;;;;;5.50;1.73;;;19.80;75.10;;;;;;5074545;28;20021;-74
2022/09/08 02:37:47;;;;;;;6.30;1.80;;;19.80;75.00;;;;;;5074522;28;20037;-74
2022/09/08 02:40:13;;;;;;;4.88;1.58;;;19.80;75.50;;;;;;5074535;28;20068;-74
2022/09/08 02:42:39;;;;;;;2.20;1.42;;;19.80;74.60;;;;;;5074423;28;20033;-74
2022/09/08 02:45:08;;;;;;;4.07;1.65;;;19.90;75.60;;;;;;5074270;28;20029;-74
2022/09/08 02:47:34;;;;;;;3.33;1.50;;;19.90;74.70;;;;;;5074373;28;20088;-74
2022/09/08 02:50:00;;;;;;;5.35;1.50;;;19.90;74.30;;;;;;5074303;28;20032;-74
2022/09/08 02:52:28;;;;;;;2.92;1.60;;;19.90;74.20;;;;;;5074229;28;20519;-73
2022/09/08 02:54:54;;;;;;;3.25;1.48;;;19.80;74.50;;;;;;5074153;28;20402;-74
2022/09/08 02:57:20;;;;;;;6.20;1.52;;;19.80;74.70;;;;;;5074120;28;20093;-74
2022/09/08 02:59:46;;;;;;;5.22;1.58;;;19.90;74.90;;;;;;5074240;28;20021;-74
2022/09/08 03:02:11;;;;;;;5.25;1.70;;;19.90;74.90;;;;;;5074040;28;20056;-73
2022/09/08 03:04:37;;;;;;;3.97;1.60;;;19.90;74.60;;;;;;5072772;28;20056;-73
2022/09/08 03:07:02;;;;;;;5.18;1.52;;;19.80;74.80;;;;;;5073992;28;20093;-73
2022/09/08 03:09:28;;;;;;;3.33;1.55;;;19.90;74.80;;;;;;5073909;28;20025;-74
2022/09/08 03:11:54;;;;;;;4.22;1.60;;;19.80;74.60;;;;;;5073857;28;20033;-74
2022/09/08 03:14:19;;;;;;;3.65;1.75;;;19.70;74.70;;;;;;5073822;28;20033;-74
2022/09/08 03:16:46;;;;;;;5.63;2.05;;;19.50;75.90;;;;;;5073762;28;20037;-74
2022/09/08 03:19:12;;;;;;;5.55;2.10;;;19.40;76.20;;;;;;5073783;28;20032;-75
2022/09/08 03:21:37;;;;;;;4.75;1.92;;;19.30;76.70;;;;;;5073794;28;20033;-74
2022/09/08 03:24:03;;;;;;;7.13;1.90;;;19.20;76.70;;;;;;5073578;28;20036;-75
2022/09/08 03:26:29;;;;;;;4.15;2.25;;;19.20;77.00;;;;;;5073631;28;20052;-75
2022/09/08 03:28:54;;;;;;;4.80;2.45;;;19.20;77.10;;;;;;5072381;28;20032;-75
2022/09/08 03:31:21;;;;;;;6.50;2.30;;;19.20;77.40;;;;;;5073412;28;20032;-75
2022/09/08 03:33:47;;;;;;;4.00;2.22;;;19.30;77.50;;;;;;5072525;28;20020;-75
2022/09/08 03:36:14;;;;;;;2.92;2.10;;;19.30;77.40;;;;;;5073504;28;20040;-75
2022/09/08 03:38:40;;;;;;;4.53;2.65;;;19.30;76.80;;;;;;5073468;28;20032;-75
2022/09/08 03:41:09;;;;;;;5.22;2.65;;;19.30;76.80;;;;;;5073458;28;20025;-75
2022/09/08 03:43:35;;;;;;;3.63;1.98;;;19.20;76.90;;;;;;5073369;28;20060;-75
2022/09/08 03:46:06;;;;;;;6.07;2.38;;;19.10;76.90;;;;;;5055802;28;20033;-75
2022/09/08 03:48:33;;;;;;;3.30;2.25;;;19.10;77.10;;;;;;5073514;28;20054;-75
2022/09/08 03:51:11;;;;;;;5.38;2.80;;;19.00;77.30;;;;;;5073333;28;20081;-75
2022/09/08 03:53:36;;;;;;;4.38;2.20;;;19.00;77.50;;;;;;5073297;28;20017;-75
2022/09/08 03:56:05;;;;;;;6.38;2.70;;;18.90;77.50;;;;;;5073248;28;20020;-75
2022/09/08 03:58:32;;;;;;;4.57;2.38;;;18.90;77.70;;;;;;5073198;28;20024;-74
2022/09/08 04:00:59;;;;;;;6.30;2.67;;;18.90;77.60;;;;;;5073178;28;20039;-74
2022/09/08 04:03:25;;;;;;;4.50;2.30;;;18.80;77.80;;;;;;5072091;28;20045;-74
2022/09/08 04:05:50;;;;;;;7.38;2.70;;;18.80;77.80;;;;;;5073070;28;20033;-74
2022/09/08 04:08:16;;;;;;;5.00;2.30;;;18.90;78.00;;;;;;5073166;28;20052;-74
2022/09/08 04:10:43;;;;;;;3.13;2.47;;;18.90;77.80;;;;;;5072093;28;20040;-74
2022/09/08 04:13:08;;;;;;;6.13;2.38;;;18.90;78.10;;;;;;5073093;28;20017;-74
2022/09/08 04:15:34;;;;;;;7.53;2.90;;;18.80;77.90;;;;;;5072185;28;20044;-74
2022/09/08 04:18:00;;;;;;;7.47;2.90;;;18.90;78.00;;;;;;5073034;28;20025;-74
2022/09/08 04:20:25;;;;;;;7.97;3.17;;;18.80;77.90;;;;;;5073125;28;20037;-74
2022/09/08 04:22:51;;;;;;;5.00;2.70;;;18.80;78.00;;;;;;5072958;28;20037;-75
2022/09/08 04:25:17;;;;;;;4.43;2.55;;;18.80;78.10;;;;;;5073078;28;20025;-74
2022/09/08 04:27:43;;;;;;;3.30;2.42;;;18.90;78.40;;;;;;5073000;28;20021;-75
2022/09/08 04:30:10;;;;;;;8.98;2.83;;;19.00;78.40;;;;;;5072828;28;20047;-75
2022/09/08 04:32:38;;;;;;;4.43;2.95;;;18.90;78.20;;;;;;5072827;28;20025;-74
2022/09/08 04:35:03;;;;;;;7.07;2.60;;;18.90;78.20;;;;;;5072857;28;20041;-74
2022/09/08 04:37:29;;;;;;;3.78;2.78;;;18.80;78.30;;;;;;5072806;28;20116;-74
2022/09/08 04:39:55;;;;;;;6.30;2.70;;;18.80;78.60;;;;;;5072805;28;20036;-74
2022/09/08 04:42:23;;;;;;;6.13;2.83;;;18.90;78.70;;;;;;5074806;28;20022;-74
2022/09/08 04:44:49;;;;;;;6.72;2.95;;;18.90;78.70;;;;;;5076570;28;20067;-73
2022/09/08 04:47:14;;;;;;;4.88;2.88;;;18.90;78.40;;;;;;5076590;28;20028;-74
2022/09/08 04:49:40;;;;;;;5.47;2.95;;;18.90;78.40;;;;;;5076565;28;20044;-74
2022/09/08 04:52:06;;;;;;;6.07;2.70;;;18.90;78.50;;;;;;5076508;28;20033;-74
2022/09/08 04:54:31;;;;;;;7.25;2.90;;;19.00;78.50;;;;;;5076466;28;20025;-74
2022/09/08 04:56:58;;;;;;;8.63;3.05;;;18.90;78.40;;;;;;5076420;28;20032;-74
2022/09/08 04:59:25;;;;;;;7.78;2.92;;;18.90;78.80;;;;;;5076405;28;20029;-74
2022/09/08 05:01:50;;;;;;;6.75;3.20;;;18.90;78.80;;;;;;5076345;28;20033;-74
2022/09/08 05:04:16;;;;;;;5.70;2.90;;;18.80;79.30;;;;;;5076019;28;20117;-74
2022/09/08 05:06:42;;;;;;;7.93;3.13;;;18.70;79.70;;;;;;5076223;28;20033;-74
2022/09/08 05:09:07;;;;;;;6.43;3.45;;;18.60;81.00;;;;;;5076154;28;20037;-74
2022/09/08 05:11:34;;;;;;;6.85;3.00;;;18.60;80.60;;;;;;5075229;28;20021;-74
2022/09/08 05:14:01;;;;;;;6.28;2.88;;;18.60;80.70;;;;;;5076099;28;20025;-74
2022/09/08 05:16:28;;;;;;;4.78;2.95;;;18.60;80.40;;;;;;5076043;28;20064;-74
2022/09/08 05:18:57;;;;;;;6.43;2.80;;;18.70;80.40;;;;;;5075974;28;20464;-74
2022/09/08 05:21:23;;;;;;;6.40;3.08;;;18.60;80.40;;;;;;5075975;28;20063;-74
2022/09/08 05:23:50;;;;;;;8.02;3.10;;;18.60;80.70;;;;;;5075883;28;20023;-75
2022/09/08 05:26:17;;;;;;;5.68;2.97;;;18.60;80.80;;;;;;5074904;28;20040;-74
2022/09/08 05:28:43;;;;;;;7.55;3.35;;;18.50;80.60;;;;;;5075787;28;20029;-74
2022/09/08 05:31:13;;;;;;;4.97;2.65;;;18.60;80.60;;;;;;5075793;28;20104;-75
2022/09/08 05:33:39;;;;;;;5.40;3.10;;;18.60;81.00;;;;;;5075624;28;20488;-74
2022/09/08 05:36:10;;;;;;;7.65;2.72;;;18.60;80.60;;;;;;5075648;28;20033;-75
2022/09/08 05:38:37;;;;;;;4.72;2.85;;;18.70;80.40;;;;;;5075660;28;20063;-74
2022/09/08 05:41:03;;;;;;;6.07;2.83;;;18.60;80.20;;;;;;5075606;28;20021;-74
2022/09/08 05:43:29;;;;;;;5.47;2.47;;;18.60;80.20;;;;;;5075599;28;20037;-74
2022/09/08 05:45:54;;;;;;;8.82;3.05;;;18.60;80.20;;;;;;5075514;28;20041;-74
2022/09/08 05:48:20;;;;;;;6.50;3.20;;;18.70;80.10;;;;;;5075573;28;20025;-74
2022/09/08 05:50:46;;;;;;;8.13;3.20;;;18.70;80.00;;;;;;5075361;28;20029;-74
2022/09/08 05:53:12;;;;;;;7.28;3.10;;;18.70;79.90;;;;;;5074955;28;20033;-74
2022/09/08 05:55:40;;;;;;;6.00;2.80;;;18.70;79.90;;;;;;5075161;28;20033;-74
2022/09/08 05:58:11;;;;;;;4.35;3.10;;;18.70;79.90;;;;;;5075239;28;20032;-74
2022/09/08 06:00:37;;;;;;;6.32;3.03;;;18.70;79.80;;;;;;5075433;28;20055;-74
2022/09/08 06:03:03;;;;;;;9.60;3.58;;;18.70;79.90;;;;;;5074999;28;20037;-74
2022/09/08 06:05:29;;;;;;;4.82;2.90;;;18.70;80.10;;;;;;5075083;28;20415;-74
2022/09/08 06:07:54;;;;;;;4.38;2.65;;;18.70;80.10;;;;;;5075070;28;20035;-74
2022/09/08 06:10:20;;;;;;;8.57;3.05;;;18.70;80.10;;;;;;5075151;28;20059;-74
2022/09/08 06:12:46;;;;;;;6.25;3.10;;;18.60;80.20;;;;;;5074995;28;20029;-74
2022/09/08 06:15:12;;;;;;;10.00;3.40;;;18.70;80.30;;;;;;5074706;28;20037;-74
2022/09/08 06:17:38;;;;;;;7.80;3.15;;;18.60;80.30;;;;;;5074875;28;20057;-74
2022/09/08 06:20:05;;;;;;;4.63;3.15;;;18.60;80.60;;;;;;5074864;28;20076;-74
2022/09/08 06:22:33;;;;;;;6.35;3.63;;;18.60;80.90;;;;;;5074773;28;20023;-74
2022/09/08 06:25:02;;;;;;;8.32;3.35;;;18.60;81.10;;;;;;5074694;28;20123;-74
2022/09/08 06:27:40;;;;;;;5.88;3.13;;;18.50;81.10;;;;;;5074635;28;20021;-74
2022/09/08 06:30:12;;;;;;;5.43;3.05;;;18.50;81.60;;;;;;5074653;28;20024;-74
2022/09/08 06:32:52;;;;;;;6.38;2.88;;;18.40;81.80;;;;;;5074658;28;20021;-74
2022/09/08 06:35:31;;;;;;;8.88;3.33;;;18.40;82.20;;;;;;5074570;28;20060;-74
2022/09/08 06:37:59;;;;;;;7.82;3.25;;;18.40;82.30;;;;;;5074452;28;20081;-74
2022/09/08 06:40:36;;;;;;;8.13;3.42;;;18.30;82.60;;;;;;5074427;28;20029;-74
2022/09/08 06:43:05;;;;;;;6.85;3.15;;;18.30;83.10;;;;;;5074446;28;20029;-74
2022/09/08 06:45:35;;;;;;;6.95;2.90;;;18.20;83.70;;;;;;5074285;28;20051;-74
2022/09/08 06:48:20;;;;;;;7.07;3.30;;;18.20;83.90;;;;;;5074300;28;20084;-74
2022/09/08 06:51:10;;;;;;;8.43;3.65;;;18.20;84.20;;;;;;5074320;28;20047;-74
2022/09/08 06:53:43;;;;;;;7.20;3.40;;;18.20;84.30;;;;;;5070988;28;20068;-74
2022/09/08 06:56:14;;;;;;;4.82;3.20;;;18.10;84.50;;;;;;5074193;28;20028;-74
2022/09/08 06:58:41;;;;;;;6.43;3.30;;;18.20;84.60;;;;;;5074130;28;20037;-75
2022/09/08 07:01:17;;;;;;;6.30;3.17;;;18.30;84.70;;;;;;5074060;28;20090;-74
2022/09/08 07:03:58;;;;;;;6.53;3.80;;;18.30;84.30;;;;;;5073421;28;20052;-74
2022/09/08 07:06:27;;;;;;;6.35;3.17;;;18.20;84.50;;;;;;5073880;28;20033;-74
2022/09/08 07:09:08;;;;;;;7.90;3.65;;;18.10;85.30;;;;;;5074027;28;20051;-74
2022/09/08 07:11:57;;;;;;;9.80;3.92;;;18.10;85.40;;;;;;5073923;28;20025;-74
2022/09/08 07:14:22;;;;;;;8.55;3.35;;;18.10;85.70;;;;;;5072852;28;20031;-75
2022/09/08 07:16:51;;;;;;;9.43;3.60;;;18.10;85.70;;;;;;5072707;28;20033;-75
2022/09/08 07:19:30;;;;;;;9.20;3.45;;;18.10;85.90;;;;;;5073682;28;20021;-75
2022/09/08 07:22:09;;;;;;;7.22;3.67;;;18.10;85.60;;;;;;5073888;28;20032;-74
2022/09/08 07:24:38;;;;;;;5.78;3.17;;;18.10;85.90;;;;;;5073603;28;20029;-74
2022/09/08 07:27:07;;;;;;;7.38;3.33;;;18.20;85.70;;;;;;5073612;28;20021;-74
2022/09/08 07:29:42;;;;;;;7.35;3.60;;;18.20;86.00;;;;;;5073513;28;20085;-74
2022/09/08 07:32:14;;;;;;;7.10;3.60;;;18.10;86.30;;;;;;5073584;28;20021;-74
2022/09/08 07:34:49;;;;;;;9.77;3.35;;;18.20;86.30;;;;;;5073571;28;20021;-74
2022/09/08 07:37:28;;;;;;;7.10;3.30;;;18.20;86.20;;;;;;5073532;28;20028;-74
2022/09/08 07:40:16;;;;;;;7.82;3.65;;;18.30;86.40;;;;;;5073459;28;20037;-74
2022/09/08 07:42:42;;;;;;;6.05;3.55;;;18.40;86.50;;;;;;5072481;28;20025;-74
2022/09/08 07:45:11;;;;;;;6.53;4.45;;;18.40;86.20;;;;;;5073422;28;20084;-74
2022/09/08 07:47:43;;;;;;;10.43;4.53;;;18.50;85.90;;;;;;5073327;28;20080;-74
2022/09/08 07:51:10;;;;;;;9.38;4.47;;;18.50;86.10;;;;;;5073313;28;20048;-74
2022/09/08 07:53:26;;;;;;;10.02;4.43;;;18.50;85.70;;;;;;5072812;28;20028;-74
2022/09/08 07:55:54;;;;;;;6.47;4.32;;;18.40;86.20;;;;;;5073232;28;20036;-74
2022/09/08 07:58:33;;;;;;;8.98;4.80;;;18.50;85.80;;;;;;5073187;28;20042;-75
2022/09/08 08:01:28;;;;;;;9.57;4.75;;;18.50;86.40;;;;;;5073332;28;20028;-75
2022/09/08 08:04:12;;;;;;;8.20;4.75;;;18.50;86.10;;;;;;5068863;28;20163;-74
2022/09/08 08:06:47;;;;;;;11.88;5.80;;;18.60;86.30;;;;;;5073285;28;20041;-74
2022/09/08 08:09:18;;;;;;;8.70;5.53;;;18.60;86.30;;;;;;5073159;28;20025;-74
2022/09/08 08:12:09;;;;;;;13.18;5.97;;;18.60;86.30;;;;;;5073118;28;20169;-74
2022/09/08 08:14:45;;;;;;;9.30;5.78;;;18.60;85.60;;;;;;5073249;28;20025;-74
2022/09/08 08:17:14;;;;;;;13.70;6.57;;;18.70;85.80;;;;;;5076669;28;20044;-74
2022/09/08 08:20:02;;;;;;;11.20;7.20;;;18.80;85.80;;;;;;5077142;28;20031;-74
2022/09/08 08:22:36;;;;;;;13.05;6.95;;;18.90;86.00;;;;;;5077143;28;20021;-74
2022/09/08 08:25:14;;;;;;;11.65;8.43;;;18.90;87.10;;;;;;5077091;28;20028;-74
2022/09/08 08:27:52;;;;;;;12.18;7.60;;;19.10;86.20;;;;;;5077034;28;20041;-74
2022/09/08 08:30:22;;;;;;;12.85;7.00;;;19.00;85.10;;;;;;5076916;28;20081;-74
2022/09/08 08:32:54;;;;;;;15.48;8.27;;;19.00;85.50;;;;;;5076945;28;20026;-74
2022/09/08 08:35:47;;;;;;;13.70;7.82;;;19.00;85.30;;;;;;5076889;28;20070;-74
2022/09/08 08:38:37;;;;;;;11.90;6.80;;;19.10;85.40;;;;;;5076850;28;20025;-74
2022/09/08 08:41:22;;;;;;;11.73;6.50;;;19.20;84.10;;;;;;5076924;28;20024;-74
2022/09/08 08:44:08;;;;;;;10.50;6.40;;;19.30;83.90;;;;;;5076718;28;20025;-75
2022/09/08 08:46:49;;;;;;;10.95;6.10;;;19.40;83.80;;;;;;5076700;28;20028;-74
2022/09/08 08:49:28;;;;;;;11.70;7.07;;;19.50;84.10;;;;;;5076763;28;20032;-74
2022/09/08 08:52:15;;;;;;;10.02;6.18;;;19.50;83.00;;;;;;5076749;28;20020;-74
2022/09/08 08:55:08;;;;;;;9.88;6.30;;;19.60;81.40;;;;;;5076561;28;20031;-74
2022/09/08 08:57:51;;;;;;;9.32;5.65;;;19.60;81.10;;;;;;5076529;28;20021;-74
2022/09/08 09:00:22;;;;;;;9.85;5.50;;;19.60;80.60;;;;;;5076597;28;20033;-74
2022/09/08 09:03:11;;;;;;;8.50;4.90;;;19.50;81.40;;;;;;5076345;28;20118;-74
2022/09/08 09:06:01;;;;;;;10.98;5.93;;;19.60;81.30;;;;;;5075869;28;20048;-74
2022/09/08 09:08:45;;;;;;;9.65;5.22;;;19.70;80.60;;;;;;5076253;28;20029;-74
2022/09/08 09:11:33;;;;;;;9.38;5.35;;;19.70;80.20;;;;;;5076236;28;20029;-74
2022/09/08 09:14:24;;;;;;;8.90;5.18;;;19.90;80.70;;;;;;5076160;28;20024;-74
2022/09/08 09:17:05;;;;;;;10.43;6.22;;;20.00;79.40;;;;;;5076099;28;20029;-74
2022/09/08 09:20:00;;;;;;;9.38;5.88;;;20.00;79.60;;;;;;5076043;28;20021;-74
2022/09/08 09:23:00;;;;;;;10.38;5.03;;;20.20;78.50;;;;;;5073010;28;20076;-74
2022/09/08 09:25:45;;;;;;;5.95;2.92;;;20.20;77.10;;;;;;5075848;28;20458;-74
2022/09/08 09:28:23;;;;;;;4.20;2.70;;;20.20;75.90;;;;;;5075205;28;20017;-74
2022/09/08 09:31:07;;;;;;;2.97;2.08;;;20.30;75.20;;;;;;5076019;28;20021;-74
2022/09/08 09:33:57;;;;;;;7.03;2.38;;;20.30;73.20;;;;;;5075776;28;20021;-74
2022/09/08 09:36:44;;;;;;;3.75;2.40;;;20.30;73.50;;;;;;5075780;28;20079;-74
2022/09/08 09:39:42;;;;;;;4.13;2.28;;;20.30;73.80;;;;;;5075823;28;20025;-74
2022/09/08 09:42:58;;;;;;;6.25;2.80;;;20.40;72.20;;;;;;5075634;28;20021;-74
2022/09/08 09:45:49;;;;;;;3.60;2.28;;;20.50;73.30;;;;;;5063444;28;20040;-74
2022/09/08 09:49:06;;;;;;;4.03;2.65;;;20.60;74.00;;;;;;5075706;28;20089;-74
2022/09/08 09:51:31;;;;;;;3.13;2.40;;;20.50;72.40;;;;;;5063460;28;20045;-74
2022/09/08 09:54:18;;;;;;;3.72;1.98;;;20.40;73.00;;;;;;5075368;28;20055;-74
2022/09/08 09:56:53;;;;;;;2.85;1.73;;;20.50;71.50;;;;;;5075514;28;20046;-74
2022/09/08 09:59:37;;;;;;;2.05;1.67;;;20.50;70.80;;;;;;5075423;28;20029;-74
2022/09/08 10:02:18;;;;;;;4.07;2.25;;;20.50;71.70;;;;;;5075239;28;20050;-74
2022/09/08 10:05:17;;;;;;;3.42;2.42;;;20.40;71.50;;;;;;5075014;28;20052;-74
2022/09/08 10:08:01;;;;;;;2.40;1.75;;;20.40;72.90;;;;;;5075305;28;20025;-74
2022/09/08 10:10:47;;;;;;;4.80;2.25;;;20.30;73.20;;;;;;5075139;28;20021;-74
2022/09/08 10:14:07;;;;;;;4.43;2.33;;;20.30;72.70;;;;;;5053375;28;20105;-74
2022/09/08 10:16:51;;;;;;;3.33;1.80;;;20.40;72.50;;;;;;5033361;28;20082;-74
2022/09/08 10:19:55;;;;;;;2.25;1.42;;;20.30;71.40;;;;;;5074998;28;20080;-75
2022/09/08 10:22:58;;;;;;;2.78;1.35;;;20.30;71.60;;;;;;5033177;28;20050;-74
2022/09/08 10:26:02;;;;;;;2.50;1.40;;;20.30;70.80;;;;;;5074896;28;20056;-74
2022/09/08 10:28:50;;;;;;;2.90;1.50;;;20.40;71.30;;;;;;5074672;28;20036;-74
2022/09/08 10:31:33;;;;;;;2.58;1.70;;;20.50;68.40;;;;;;5074699;28;20107;-74
2022/09/08 10:34:27;;;;;;;4.32;1.85;;;20.70;69.90;;;;;;5074635;28;20025;-74
2022/09/08 10:36:56;;;;;;;2.35;1.42;;;20.80;70.20;;;;;;5074572;28;20025;-74
2022/09/08 10:39:40;;;;;;;5.30;1.85;;;21.00;69.60;;;;;;5073435;28;20031;-74
2022/09/08 10:42:33;;;;;;;3.45;1.75;;;21.10;67.70;;;;;;5074622;28;20055;-74
2022/09/08 10:45:38;;;;;;;4.65;2.35;;;21.20;67.50;;;;;;5074359;28;20029;-74
2022/09/08 10:48:16;;;;;;;5.07;1.30;;;21.30;70.20;;;;;;5063557;28;20037;-74
2022/09/08 10:50:53;;;;;;;2.22;1.15;;;21.40;68.40;;;;;;5074511;28;20033;-74
2022/09/08 10:53:33;;;;;;;2.80;1.60;;;21.40;67.70;;;;;;5074439;28;20017;-74
2022/09/08 10:56:42;;;;;;;5.30;1.90;;;21.40;67.30;;;;;;5074418;28;20029;-74
2022/09/08 10:59:26;;;;;;;5.55;2.00;;;21.50;69.00;;;;;;5052465;28;20052;-75
2022/09/08 11:02:10;;;;;;;4.75;1.73;;;21.70;67.30;;;;;;5072252;28;20037;-75
2022/09/08 11:04:47;;;;;;;2.30;1.17;;;21.90;66.30;;;;;;5073805;28;20052;-74
2022/09/08 11:07:25;;;;;;;1.70;1.20;;;21.90;64.50;;;;;;5074050;28;20400;-74
2022/09/08 11:10:25;;;;;;;3.83;1.55;;;21.90;64.20;;;;;;5074046;28;20032;-74
2022/09/08 11:13:12;;;;;;;2.97;1.23;;;22.00;63.70;;;;;;5074115;28;20045;-74
2022/09/08 11:15:46;;;;;;;3.28;1.33;;;22.00;64.50;;;;;;5073914;28;20032;-74
2022/09/08 11:18:37;;;;;;;3.53;1.30;;;22.10;64.50;;;;;;5073858;28;20036;-74
2022/09/08 11:21:09;;;;;;;2.63;1.20;;;22.20;62.90;;;;;;5073818;28;20029;-74
2022/09/08 11:24:09;;;;;;;4.35;1.05;;;22.20;62.10;;;;;;5073926;28;20024;-75
2022/09/08 11:26:35;;;;;;;3.13;1.10;;;22.30;62.50;;;;;;5073703;28;20036;-74
2022/09/08 11:29:06;;;;;;;3.72;1.40;;;22.40;61.70;;;;;;5073574;28;20084;-74
2022/09/08 11:31:31;;;;;;;3.85;1.20;;;22.60;63.30;;;;;;5073591;28;20017;-74
2022/09/08 11:34:19;;;;;;;3.97;1.15;;;22.60;61.00;;;;;;5073567;28;20051;-74
2022/09/08 11:37:15;;;;;;;6.40;1.80;;;22.60;60.80;;;;;;5073654;28;20060;-74
2022/09/08 11:40:10;;;;;;;1.48;1.15;;;22.70;61.10;;;;;;5073623;28;20028;-74
2022/09/08 11:43:08;;;;;;;4.43;1.65;;;22.60;59.70;;;;;;5072138;28;20089;-74
2022/09/08 11:45:33;;;;;;;3.60;1.20;;;22.70;61.20;;;;;;5073488;28;20121;-74
2022/09/08 11:48:05;;;;;;;3.10;1.48;;;22.80;60.40;;;;;;5073357;28;20025;-75
2022/09/08 11:50:43;;;;;;;3.88;1.38;;;22.80;60.80;;;;;;5073043;28;20021;-74
2022/09/08 11:53:59;;;;;;;4.20;1.45;;;22.80;60.40;;;;;;5073336;28;20076;-74
2022/09/08 11:56:38;;;;;;;5.55;1.38;;;22.70;59.50;;;;;;5051425;28;20037;-74
2022/09/08 11:59:25;;;;;;;2.83;1.00;;;22.80;61.30;;;;;;5070425;28;20036;-74
2022/09/08 12:02:30;;;;;;;5.05;1.40;;;22.80;56.70;;;;;;5073239;28;20021;-74
2022/09/08 12:05:29;;;;;;;6.28;1.30;;;22.80;58.00;;;;;;5068836;28;20053;-74
2022/09/08 12:08:19;;;;;;;4.65;1.17;;;22.90;60.40;;;;;;5073350;28;20088;-74
2022/09/08 12:10:52;;;;;;;6.05;1.23;;;22.80;60.10;;;;;;5073266;28;20055;-74
2022/09/08 12:13:32;;;;;;;2.78;1.27;;;22.70;58.80;;;;;;5073237;28;20029;-74
2022/09/08 12:16:09;;;;;;;6.78;1.60;;;22.70;59.10;;;;;;5073099;28;20029;-74
2022/09/08 12:19:05;;;;;;;2.88;1.27;;;22.80;59.40;;;;;;5073020;28;20033;-74
2022/09/08 12:21:56;;;;;;;4.40;1.40;;;22.80;58.60;;;;;;5073190;28;20029;-74
2022/09/08 12:24:54;;;;;;;8.95;1.48;;;22.80;58.90;;;;;;5072980;28;20040;-75
2022/09/08 12:27:47;;;;;;;3.03;1.30;;;22.80;59.20;;;;;;5063737;28;20063;-74
2022/09/08 12:30:21;;;;;;;4.57;1.30;;;22.80;58.90;;;;;;5073043;28;20014;-74
2022/09/08 12:33:00;;;;;;;5.15;1.52;;;22.60;58.80;;;;;;5072948;28;20018;-74
2022/09/08 12:35:35;;;;;;;4.20;1.35;;;22.50;59.00;;;;;;5072868;28;20025;-74
2022/09/08 12:38:06;;;;;;;5.07;1.30;;;22.40;58.70;;;;;;5072888;28;20412;-74
2022/09/08 12:41:05;;;;;;;5.77;1.40;;;22.50;60.30;;;;;;5072903;28;20024;-74
2022/09/08 12:43:41;;;;;;;4.32;1.25;;;22.70;60.90;;;;;;5072995;28;20021;-74
2022/09/08 12:46:17;;;;;;;3.80;1.50;;;22.90;59.50;;;;;;5072749;28;20025;-74
2022/09/08 12:49:11;;;;;;;3.28;1.30;;;22.90;58.60;;;;;;5072944;28;20082;-74
2022/09/08 12:51:38;;;;;;;2.67;1.52;;;23.00;57.60;;;;;;5072813;28;20056;-74
2022/09/08 12:54:09;;;;;;;3.40;1.55;;;23.00;58.60;;;;;;5072651;28;20032;-74
2022/09/08 12:56:59;;;;;;;3.70;1.73;;;23.10;58.70;;;;;;5072693;28;20036;-74
2022/09/08 12:59:30;;;;;;;4.00;1.20;;;23.20;58.30;;;;;;5072658;28;20289;-74
2022/09/08 13:02:30;;;;;;;2.65;1.45;;;23.30;57.50;;;;;;5072621;28;20032;-74
2022/09/08 13:05:17;;;;;;;4.63;1.30;;;23.30;56.80;;;;;;5076018;28;20048;-74
2022/09/08 13:07:46;;;;;;;3.10;1.17;;;23.50;56.40;;;;;;5076350;28;20059;-74
2022/09/08 13:10:33;;;;;;;3.50;1.52;;;23.40;54.00;;;;;;5076260;28;20021;-75
2022/09/08 13:13:31;;;;;;;3.53;1.30;;;23.40;56.00;;;;;;5076283;28;20032;-74
2022/09/08 13:16:08;;;;;;;2.95;1.30;;;23.50;57.00;;;;;;5076333;28;20032;-74
2022/09/08 13:18:59;;;;;;;3.08;1.30;;;23.40;55.40;;;;;;5076149;28;20029;-75
2022/09/08 13:21:39;;;;;;;2.80;1.00;;;23.40;56.10;;;;;;5076131;28;20077;-75
2022/09/08 13:24:17;;;;;;;4.07;1.27;;;23.30;53.80;;;;;;5076073;28;20052;-74
2022/09/08 13:27:15;;;;;;;4.07;1.35;;;23.10;53.80;;;;;;5075978;28;20025;-75
2022/09/08 13:29:56;;;;;;;2.85;1.17;;;23.00;55.00;;;;;;5075953;28;20088;-74
2022/09/08 13:32:52;;;;;;;2.92;0.98;;;22.80;54.80;;;;;;5075847;28;20077;-75